8W2

New Market Airport

New Market, Virginia, USA
METAR K8W2 130610Z AUTO 05003KT 2SM OVC004 03/03 A3010 RMK AO1 P0001 T00320026
Observed Flight Rules
Nov-13 @ 06:10 UTC (46 minutes ago) Instrument Flight Rules
Wind Visibility Clouds
50° at 3 knots 2 miles
  • Overcast at 400' AGL
Temperatures Readings Precipitation
Current 3°C / 37°F
Dewpoint 3°C / 37°F
Humidity 100%
Altimeter 30.1" Hg
Pressure 1019 hPa
Elevation 297
Current Rain 0.01
METAR K8W2 130610Z AUTO 05003KT 2SM OVC004 03/03 A3010 RMK AO1 P0001 T00320026
Observed Flight Rules
Nov-13 @ 06:10 UTC
(46 minutes ago)
LIFR
Wind Visibility
50° at 3 knots 2 miles
Clouds
  • Overcast at 400' AGL
Temperature Dewpoint
3°C / 37°F 3°C / 37°F
Humidity Altimeter Pressure
100% 30.1" Hg 1019 hPa
Current Rain
0.01